To NAV CANADA Home Page Login to a new session Search on AWWS site Disclaimer Vers la page française équivalente Tips FAQ What's new on the site To the Forecasts and Observations / NOTAM section To "File a Flight Plan" website Publications and other links Update of the User's profile FIC Telephone Numbers My Weather Data Folder Route Weather Data Regional Weather Data Local Weather Data To the Forecasts and Observations / NOTAM section
Request Generated 03/21/2019 at 01:30:53 UTC . Weather information available at that time is displayed.


Save this request - Inactive

METAR/TAF

If you find any discrepancies between the coded METAR/TAF and the plain language METAR/TAF please use the coded METAR/TAF. LWIS bulletins are not decoded in plain language.

EDMONTON INTL/AB    

METAR CYEG 210100Z 17004KT 20SM SKC 08/M02 A3004 RMK SLP204=
METAR
LOCATION
CYEG - EDMONTON INTL/AB
DATE - TIME
21 MARCH 2019 - 0100 UTC
WIND
170 TRUE @ 4  KNOTS
VISIBILITY
20 STAT.  MILES
RUNWAY VISUAL RANGE
WEATHER
CLOUDINESS
CLEAR SKY
TEMP / DEWPOINT
8 C / -2 C
ALTIMETER
30.04 IN HG
RECENT WEATHER
WIND SHEAR

METAR CYEG 210000Z 18006KT 20SM SKC 09/M01 A3005 RMK SLP206=
METAR
LOCATION
CYEG - EDMONTON INTL/AB
DATE - TIME
21 MARCH 2019 - 0000 UTC
WIND
180 TRUE @ 6  KNOTS
VISIBILITY
20 STAT.  MILES
RUNWAY VISUAL RANGE
WEATHER
CLOUDINESS
CLEAR SKY
TEMP / DEWPOINT
9 C / -1 C
ALTIMETER
30.05 IN HG
RECENT WEATHER
WIND SHEAR

METAR CYEG 202300Z 21003KT 20SM SKC 08/M01 A3006 RMK SLP209=
METAR
LOCATION
CYEG - EDMONTON INTL/AB
DATE - TIME
20 MARCH 2019 - 2300 UTC
WIND
210 TRUE @ 3  KNOTS
VISIBILITY
20 STAT.  MILES
RUNWAY VISUAL RANGE
WEATHER
CLOUDINESS
CLEAR SKY
TEMP / DEWPOINT
8 C / -1 C
ALTIMETER
30.06 IN HG
RECENT WEATHER
WIND SHEAR

TAF CYEG 202338Z 2100/2124 20005KT P6SM SKC BECMG 2101/2103 VRB03KT BECMG 2113/2115 10006KT FM212100 13012KT P6SM SKC RMK NXT FCST BY 210300Z=
TAF
LOCATION

CYEG - EDMONTON INTL/AB
VALIDITY [UTC]
20 MAR - 2338 to
22 MAR - 0000
 
TIMES
[UTC]
WIND
[DEGREES TRUE]
VISIBILITY
[STAT. MILES]
WEATHER
CLOUDINESS
[FEET AGL]
 
21 MAR - 0000 to
21 MAR - 2100
200 @ 5 KNOTS
6+
NIL
CLEAR SKY
BECOMING
21 MAR - 0100 to
21 MAR - 0300
VARIABLE @ 3 KNOTS
 
 
 
BECOMING
21 MAR - 1300 to
21 MAR - 1500
100 @ 6 KNOTS
 
 
 
 
21 MAR - 2100 to
22 MAR - 0000
130 @ 12 KNOTS
6+
NIL
CLEAR SKY
REMARKS
THE NEXT FORECAST WILL BE ISSUED BY 0300 UTC ON DAY 21


EDMONTON/NAMAO/AB    

METAR CYED 210100Z AUTO 00000KT 9SM CLR 09/M02 A3004 RMK SLP197=
METAR
LOCATION
CYED - EDMONTON/NAMAO/AB
DATE - TIME
21 MARCH 2019 - 0100 UTC
WIND
CALM
VISIBILITY
9 STAT.  MILES
RUNWAY VISUAL RANGE
WEATHER
CLOUDINESS
CLEAR SKY
TEMP / DEWPOINT
9 C / -2 C
ALTIMETER
30.04 IN HG
RECENT WEATHER
WIND SHEAR

METAR CYED 210000Z AUTO 34004KT 9SM CLR 10/M03 A3004 RMK SLP198=
METAR
LOCATION
CYED - EDMONTON/NAMAO/AB
DATE - TIME
21 MARCH 2019 - 0000 UTC
WIND
340 TRUE @ 4  KNOTS
VISIBILITY
9 STAT.  MILES
RUNWAY VISUAL RANGE
WEATHER
CLOUDINESS
CLEAR SKY
TEMP / DEWPOINT
10 C / -3 C
ALTIMETER
30.04 IN HG
RECENT WEATHER
WIND SHEAR

METAR CYED 202300Z AUTO 00000KT 9SM CLR 13/M03 A3004 RMK SLP194=
METAR
LOCATION
CYED - EDMONTON/NAMAO/AB
DATE - TIME
20 MARCH 2019 - 2300 UTC
WIND
CALM
VISIBILITY
9 STAT.  MILES
RUNWAY VISUAL RANGE
WEATHER
CLOUDINESS
CLEAR SKY
TEMP / DEWPOINT
13 C / -3 C
ALTIMETER
30.04 IN HG
RECENT WEATHER
WIND SHEAR

TAF CYED 202330Z 2100/2112 VRB03KT P6SM FEW250 RMK FCST BASED ON AUTO OBS. NXT FCST BY 210600Z=
TAF

20 MAR 2019 - 2330 UTC
LOCATION

CYED - EDMONTON/NAMAO/AB
VALIDITY [UTC]
20 MAR - 2330 to
21 MAR - 1200
 
TIMES
[UTC]
WIND
[DEGREES TRUE]
VISIBILITY
[STAT. MILES]
WEATHER
CLOUDINESS
[FEET AGL]
 
21 MAR - 0000 to
21 MAR - 1200
VARIABLE @ 3 KNOTS
6+
NIL
25000 FEW
REMARKS
THE FORECAST IS BASED ON AUTOMATIC OBSERVATIONS - THE NEXT FORECAST WILL BE ISSUED BY 0600 UTC ON DAY 21


EDMONTON/EDMONTON CITY CENTRE(BLATCHFORD FIELD)/AB    

CYXD - METAR not available

CYXD - TAF not available

EDMONTON/VILLENEUVE/AB    (show WxCam)

METAR CZVL 210100Z AUTO 12002KT 9SM CLR 09/M00 A3004 RMK SLP200=
METAR
LOCATION
CZVL - EDMONTON/VILLENEUVE/AB
DATE - TIME
21 MARCH 2019 - 0100 UTC
WIND
120 TRUE @ 2  KNOTS
VISIBILITY
9 STAT.  MILES
RUNWAY VISUAL RANGE
WEATHER
CLOUDINESS
CLEAR SKY
TEMP / DEWPOINT
9 C / 0 C
ALTIMETER
30.04 IN HG
RECENT WEATHER
WIND SHEAR

METAR CZVL 210000Z AUTO 00000KT 9SM CLR 12/M02 A3004 RMK SLP198=
METAR
LOCATION
CZVL - EDMONTON/VILLENEUVE/AB
DATE - TIME
21 MARCH 2019 - 0000 UTC
WIND
CALM
VISIBILITY
9 STAT.  MILES
RUNWAY VISUAL RANGE
WEATHER
CLOUDINESS
CLEAR SKY
TEMP / DEWPOINT
12 C / -2 C
ALTIMETER
30.04 IN HG
RECENT WEATHER
WIND SHEAR

METAR CZVL 202300Z AUTO 16004KT 9SM CLR 11/M01 A3004 RMK SLP198=
METAR
LOCATION
CZVL - EDMONTON/VILLENEUVE/AB
DATE - TIME
20 MARCH 2019 - 2300 UTC
WIND
160 TRUE @ 4  KNOTS
VISIBILITY
9 STAT.  MILES
RUNWAY VISUAL RANGE
WEATHER
CLOUDINESS
CLEAR SKY
TEMP / DEWPOINT
11 C / -1 C
ALTIMETER
30.04 IN HG
RECENT WEATHER
WIND SHEAR

TAF CZVL 202338Z 2100/2112 VRB03KT P6SM SKC RMK FCST BASED ON AUTO OBS. NXT FCST BY 210600Z=
TAF

20 MAR 2019 - 2338 UTC
LOCATION

CZVL - EDMONTON/VILLENEUVE/AB
VALIDITY [UTC]
20 MAR - 2338 to
21 MAR - 1200
 
TIMES
[UTC]
WIND
[DEGREES TRUE]
VISIBILITY
[STAT. MILES]
WEATHER
CLOUDINESS
[FEET AGL]
 
21 MAR - 0000 to
21 MAR - 1200
VARIABLE @ 3 KNOTS
6+
NIL
CLEAR SKY
REMARKS
THE FORECAST IS BASED ON AUTOMATIC OBSERVATIONS - THE NEXT FORECAST WILL BE ISSUED BY 0600 UTC ON DAY 21




Your time UTC time
Weather data provided by Environment Canada and NAV CANADA